Time;durP1;ratioP1;P1;durP2;ratioP2;P2;SDS_P1;SDS_P2;PMS_P1;PMS_P2;Temp;Humidity;BMP_temperature;BMP_pressure;BME280_temperature;BME280_humidity;BME280_pressure;Samples;Min_cycle;Max_cycle;Signal;HPM_P1;HPM_P2
2023/08/27 00:00:10;;;;;;;3.53;1.85;;;14.90;99.90;;;16.34;100.00;100207.59;4949938;29;20399;-76
2023/08/27 00:02:42;;;;;;;3.75;2.10;;;14.90;99.90;;;16.21;100.00;100201.50;4938892;29;20055;-77
2023/08/27 00:05:09;;;;;;;4.38;1.90;;;14.90;99.90;;;16.26;100.00;100208.94;4948389;28;20090;-77
2023/08/27 00:07:35;;;;;;;4.32;2.17;;;15.00;99.90;;;16.28;100.00;100200.41;4938323;29;20039;-76
2023/08/27 00:10:01;;;;;;;4.25;2.17;;;15.00;99.90;;;16.32;100.00;100207.03;4949386;28;20050;-76
2023/08/27 00:12:27;;;;;;;5.05;1.98;;;15.00;99.90;;;16.37;100.00;100205.16;4950092;28;20043;-75
2023/08/27 00:14:53;;;;;;;4.03;1.80;;;15.20;99.90;;;16.52;100.00;100198.91;4937688;29;20042;-76
2023/08/27 00:17:19;;;;;;;3.17;1.90;;;15.20;99.90;;;16.61;100.00;100204.72;4945620;29;20046;-76
2023/08/27 00:19:45;;;;;;;4.45;1.90;;;15.30;99.90;;;16.62;100.00;100211.06;4943914;28;20047;-76
2023/08/27 00:22:11;;;;;;;3.88;2.00;;;15.30;99.90;;;16.59;100.00;100217.09;4943611;28;20035;-77
2023/08/27 00:24:38;;;;;;;5.00;1.98;;;15.40;99.90;;;16.60;100.00;100205.84;4945650;29;20199;-76
2023/08/27 00:27:05;;;;;;;5.78;1.80;;;15.40;99.90;;;16.60;100.00;100208.59;4940225;29;20381;-76
2023/08/27 00:29:32;;;;;;;4.05;1.77;;;15.40;99.90;;;16.62;100.00;100195.38;4962168;28;20067;-76
2023/08/27 00:31:58;;;;;;;4.30;1.80;;;15.50;99.90;;;16.77;100.00;100178.09;4937064;28;20035;-77
2023/08/27 00:34:35;;;;;;;3.65;1.67;;;15.60;99.90;;;16.81;100.00;100168.19;4948276;28;20365;-77
2023/08/27 00:37:03;;;;;;;5.35;2.20;;;15.60;99.90;;;16.77;100.00;100188.25;4940505;28;20028;-76
2023/08/27 00:39:29;;;;;;;;;;;15.60;99.90;;;16.85;100.00;100200.69;4953591;28;20039;-76
2023/08/27 00:41:56;;;;;;;4.70;2.00;;;15.70;99.90;;;16.82;100.00;100204.78;4951247;29;19940;-77
2023/08/27 00:44:22;;;;;;;3.83;1.70;;;15.70;99.90;;;16.82;100.00;100200.13;4932063;29;20043;-76
2023/08/27 00:46:49;;;;;;;3.85;2.10;;;15.70;99.90;;;16.85;100.00;100203.44;4950340;29;20036;-77
2023/08/27 00:49:15;;;;;;;4.03;1.98;;;15.70;99.90;;;16.85;100.00;100195.19;4957628;28;20111;-77
2023/08/27 00:51:44;;;;;;;4.55;1.95;;;15.60;99.90;;;16.77;100.00;100180.84;4952451;28;20463;-78
2023/08/27 00:54:12;;;;;;;5.15;2.00;;;15.50;99.90;;;16.67;100.00;100183.53;4951627;29;20157;-78
2023/08/27 00:56:42;;;;;;;3.17;2.13;;;15.40;99.90;;;16.60;100.00;100200.31;4938162;29;20488;-77
2023/08/27 00:59:08;;;;;;;4.68;2.30;;;15.30;99.90;;;16.55;100.00;100189.25;4937389;28;20301;-78
2023/08/27 01:01:37;;;;;;;3.20;2.20;;;15.20;99.90;;;16.47;100.00;100160.34;4947135;29;20039;-77
2023/08/27 01:04:04;;;;;;;4.10;2.00;;;15.10;99.90;;;16.34;100.00;100164.41;4952666;28;20039;-78
2023/08/27 01:06:30;;;;;;;4.00;2.25;;;15.00;99.90;;;16.29;100.00;100166.28;4951077;28;20050;-77
2023/08/27 01:09:32;;;;;;;4.40;2.30;;;15.00;99.90;;;16.16;100.00;100176.66;4952432;28;20035;-77
2023/08/27 01:12:13;;;;;;;3.83;2.40;;;15.00;99.90;;;16.19;100.00;100184.41;4940752;29;20066;-77
2023/08/27 01:14:45;;;;;;;5.50;2.40;;;15.00;99.90;;;16.29;100.00;100169.03;4944551;29;20499;-76
2023/08/27 01:17:15;;;;;;;5.93;2.38;;;15.00;99.90;;;16.20;100.00;100150.31;4949908;29;20042;-77
2023/08/27 01:19:42;;;;;;;3.63;2.15;;;14.90;99.90;;;16.25;100.00;100135.72;4954542;28;20059;-77
2023/08/27 01:22:08;;;;;;;4.97;2.40;;;14.90;99.90;;;16.27;100.00;100110.69;4943856;28;20282;-77
2023/08/27 01:24:34;;;;;;;4.60;2.33;;;14.90;99.90;;;16.22;100.00;100097.72;4941543;29;20073;-76
2023/08/27 01:27:11;;;;;;;4.72;2.38;;;14.90;99.90;;;16.17;100.00;100095.78;4943784;29;20056;-76
2023/08/27 01:30:23;;;;;;;4.28;2.22;;;14.90;99.90;;;16.22;100.00;100089.47;4935890;29;20036;-76
2023/08/27 01:33:05;;;;;;;3.78;2.20;;;14.90;99.90;;;16.06;100.00;100072.06;4939711;29;20039;-77
2023/08/27 01:35:33;;;;;;;4.90;2.35;;;14.70;99.90;;;15.86;100.00;100079.06;4936437;29;20046;-76
2023/08/27 01:37:59;;;;;;;4.25;2.50;;;14.50;99.90;;;15.61;100.00;100066.81;4947599;29;20106;-76
2023/08/27 01:40:27;;;;;;;5.03;2.70;;;14.30;99.90;;;15.42;100.00;100060.94;4953482;29;20035;-76
2023/08/27 01:42:53;;;;;;;3.58;2.50;;;14.10;99.90;;;15.16;100.00;100044.25;4945443;28;20039;-76
2023/08/27 01:45:20;;;;;;;4.22;2.40;;;13.90;99.90;;;15.08;100.00;100059.28;4953112;29;20043;-77
2023/08/27 01:47:46;;;;;;;3.50;2.50;;;13.70;99.90;;;14.97;100.00;100057.53;4950841;28;20028;-76
2023/08/27 01:50:12;;;;;;;4.25;2.70;;;13.60;99.90;;;14.84;100.00;100055.19;4944899;28;20400;-77
2023/08/27 01:52:37;;;;;;;4.90;2.80;;;13.40;99.90;;;14.72;100.00;100056.19;4951112;28;20391;-77
2023/08/27 01:55:04;;;;;;;5.68;3.00;;;13.30;99.90;;;14.67;100.00;100045.16;4944580;29;20032;-77
2023/08/27 01:57:31;;;;;;;6.45;3.30;;;13.20;99.90;;;14.58;100.00;100030.22;4945322;29;20426;-76
2023/08/27 01:59:57;;;;;;;6.70;3.30;;;13.20;99.90;;;14.64;100.00;100032.75;4944133;29;20089;-77
2023/08/27 02:02:23;;;;;;;6.78;3.10;;;13.20;99.90;;;14.75;100.00;100013.69;4944736;29;20054;-77
2023/08/27 02:04:49;;;;;;;4.47;3.05;;;13.30;99.90;;;14.78;100.00;99992.00;4940613;28;20488;-77
2023/08/27 02:07:16;;;;;;;5.13;3.50;;;13.40;99.90;;;14.85;100.00;99988.22;4943129;28;20038;-77
2023/08/27 02:09:44;;;;;;;5.40;3.30;;;13.40;99.90;;;14.86;100.00;99976.16;4949462;29;20020;-77
2023/08/27 02:12:10;;;;;;;5.90;3.60;;;13.40;99.90;;;14.85;100.00;99993.69;4963814;28;20103;-77
2023/08/27 02:14:36;;;;;;;4.53;3.30;;;13.40;99.90;;;14.82;100.00;100000.56;4941877;28;20536;-77
2023/08/27 02:17:03;;;;;;;4.38;3.30;;;13.40;99.90;;;14.79;100.00;99990.09;4955372;28;20083;-77
2023/08/27 02:19:29;;;;;;;6.65;3.80;;;13.40;99.90;;;14.74;100.00;99965.34;4943594;29;20079;-77
2023/08/27 02:21:55;;;;;;;6.53;3.47;;;13.40;99.90;;;14.80;100.00;99959.63;4929429;29;20437;-77
2023/08/27 02:24:20;;;;;;;6.35;3.60;;;13.40;99.90;;;14.82;100.00;99945.66;4941570;28;20042;-77
2023/08/27 02:26:46;;;;;;;4.10;3.20;;;13.40;99.90;;;14.71;100.00;99960.38;4935746;29;20043;-77
2023/08/27 02:29:12;;;;;;;4.75;3.38;;;13.30;99.90;;;14.72;100.00;99971.09;4942415;29;20042;-77
2023/08/27 02:31:38;;;;;;;5.35;3.17;;;13.30;99.90;;;14.68;100.00;99978.16;4940827;29;20028;-77
2023/08/27 02:34:04;;;;;;;6.13;3.45;;;13.20;99.90;;;14.65;100.00;99967.72;4948847;29;20035;-77
2023/08/27 02:36:31;;;;;;;5.57;3.35;;;13.20;99.90;;;14.62;100.00;99958.06;4934915;29;20038;-77
2023/08/27 02:38:57;;;;;;;5.80;3.33;;;13.20;99.90;;;14.58;100.00;99972.56;4961621;28;20039;-78
2023/08/27 02:41:23;;;;;;;4.65;3.35;;;13.20;99.90;;;14.47;100.00;99975.22;4945126;28;20044;-77
2023/08/27 02:43:49;;;;;;;5.50;3.28;;;13.10;99.90;;;14.33;100.00;99963.84;4938332;29;20047;-77
2023/08/27 02:46:14;;;;;;;5.72;3.35;;;13.00;99.90;;;14.26;100.00;99965.97;4945148;29;20818;-77
2023/08/27 02:48:40;;;;;;;8.75;3.85;;;12.90;99.90;;;14.17;100.00;99968.34;4941296;28;20051;-77
2023/08/27 02:51:06;;;;;;;5.47;3.38;;;12.80;99.90;;;14.09;100.00;99957.84;4944478;28;20041;-77
2023/08/27 02:53:31;;;;;;;5.47;3.03;;;12.70;99.90;;;14.03;100.00;99945.13;4942383;28;20039;-77
2023/08/27 02:55:57;;;;;;;4.55;3.75;;;12.70;99.90;;;13.98;100.00;99943.19;4942088;28;20087;-77
2023/08/27 02:58:23;;;;;;;8.82;4.15;;;12.70;99.90;;;13.95;100.00;99919.81;4927854;29;20040;-77
2023/08/27 03:00:49;;;;;;;4.28;3.83;;;12.70;99.90;;;13.93;100.00;99912.97;4948178;28;20661;-77
2023/08/27 03:03:14;;;;;;;5.88;3.75;;;12.70;99.90;;;13.89;100.00;99896.19;4933875;28;20559;-76
2023/08/27 03:05:40;;;;;;;5.28;3.92;;;12.60;99.90;;;13.81;100.00;99878.28;4957385;28;20036;-77
2023/08/27 03:08:06;;;;;;;5.88;4.28;;;12.60;99.90;;;13.80;100.00;99864.84;4939510;29;20064;-77
2023/08/27 03:10:32;;;;;;;6.93;5.03;;;12.50;99.90;;;13.77;100.00;99857.94;4945492;29;20047;-76
2023/08/27 03:12:58;;;;;;;5.55;4.18;;;12.50;99.90;;;13.77;100.00;99854.38;4938975;28;20039;-77
2023/08/27 03:15:24;;;;;;;9.32;4.97;;;12.50;99.90;;;13.75;100.00;99837.34;4943711;29;20027;-77
2023/08/27 03:17:50;;;;;;;8.23;5.70;;;12.60;99.90;;;13.77;100.00;99851.63;4934581;29;20087;-77
2023/08/27 03:20:15;;;;;;;7.18;5.15;;;12.60;99.90;;;13.76;100.00;99844.47;4945999;29;20453;-77
2023/08/27 03:22:41;;;;;;;6.53;4.72;;;12.60;99.90;;;13.71;100.00;99844.44;4950083;29;20082;-77
2023/08/27 03:25:07;;;;;;;7.00;5.32;;;12.50;99.90;;;13.78;100.00;99859.59;4948681;29;20039;-77
2023/08/27 03:27:36;;;;;;;7.90;5.30;;;12.50;99.90;;;13.89;100.00;99857.81;4949740;28;20047;-77
2023/08/27 03:30:04;;;;;;;8.75;5.57;;;12.70;99.90;;;13.79;100.00;99831.09;4949899;28;20383;-77
2023/08/27 03:32:30;;;;;;;8.05;5.65;;;12.70;99.90;;;13.94;100.00;99846.06;4944233;28;20046;-77
2023/08/27 03:34:56;;;;;;;8.07;5.53;;;12.80;99.90;;;13.94;100.00;99843.31;4936342;28;20125;-77
2023/08/27 03:37:22;;;;;;;6.32;4.93;;;12.70;99.90;;;14.00;100.00;99833.22;4927484;29;20044;-77
2023/08/27 03:39:48;;;;;;;7.07;5.47;;;12.80;99.90;;;14.04;100.00;99837.09;4934611;29;20082;-77
2023/08/27 03:42:14;;;;;;;7.32;4.90;;;12.80;99.90;;;14.03;100.00;99813.50;4948601;29;20046;-77
2023/08/27 03:44:40;;;;;;;5.97;4.25;;;12.80;99.90;;;14.01;100.00;99810.19;4938824;28;20039;-77
2023/08/27 03:47:05;;;;;;;8.10;4.95;;;12.90;99.90;;;14.07;100.00;99823.69;4945568;29;20047;-77
2023/08/27 03:49:31;;;;;;;6.72;4.88;;;12.90;99.90;;;14.06;100.00;99822.03;4949675;29;20031;-76
2023/08/27 03:51:57;;;;;;;6.57;4.70;;;12.90;99.90;;;14.08;100.00;99830.03;4944182;28;20452;-76
2023/08/27 03:54:23;;;;;;;8.35;4.80;;;12.80;99.90;;;14.09;100.00;99820.69;4949478;29;20174;-76
2023/08/27 03:56:50;;;;;;;8.07;5.00;;;12.80;99.90;;;14.13;100.00;99830.06;4943673;29;20039;-77
2023/08/27 03:59:17;;;;;;;8.50;5.15;;;12.80;99.90;;;14.13;100.00;99841.03;4936468;28;20412;-76
2023/08/27 04:01:43;;;;;;;6.18;4.72;;;12.80;99.90;;;14.14;100.00;99833.63;4942637;29;20031;-76
2023/08/27 04:04:09;;;;;;;7.18;4.88;;;12.80;99.90;;;14.15;100.00;99835.28;4933855;29;20039;-77
2023/08/27 04:06:35;;;;;;;8.38;4.72;;;12.90;99.90;;;14.15;100.00;99838.00;4961913;28;20043;-77
2023/08/27 04:09:01;;;;;;;7.03;4.68;;;12.90;99.90;;;14.26;100.00;99833.44;4963432;28;20043;-77
2023/08/27 04:11:27;;;;;;;6.88;5.10;;;13.00;99.90;;;14.34;100.00;99830.25;4948874;28;20048;-77
2023/08/27 04:13:53;;;;;;;6.35;4.40;;;13.10;99.90;;;14.44;100.00;99827.56;4948678;29;20569;-77
2023/08/27 04:16:21;;;;;;;6.30;4.32;;;13.20;99.90;;;14.51;100.00;99844.63;4950997;28;20063;-78
2023/08/27 04:18:46;;;;;;;8.77;4.68;;;13.30;99.90;;;14.50;100.00;99844.91;4952531;29;20061;-78
2023/08/27 04:21:12;;;;;;;6.43;4.50;;;13.30;99.90;;;14.56;100.00;99863.06;4953779;28;20043;-78
2023/08/27 04:23:38;;;;;;;5.03;4.03;;;13.40;99.90;;;14.53;100.00;99858.91;4966271;28;20078;-78
2023/08/27 04:26:04;;;;;;;5.20;4.10;;;13.40;99.90;;;14.63;100.00;99865.59;4942350;29;20028;-78
2023/08/27 04:28:31;;;;;;;5.53;4.10;;;13.50;99.90;;;14.72;100.00;99872.25;4953357;29;20345;-78
2023/08/27 04:30:58;;;;;;;6.13;4.07;;;13.50;99.90;;;14.71;100.00;99889.81;4936753;29;20055;-78
2023/08/27 04:33:24;;;;;;;6.60;4.22;;;13.50;99.90;;;14.71;100.00;99899.97;4952014;29;20119;-78
2023/08/27 04:35:52;;;;;;;5.57;4.20;;;13.50;99.90;;;14.76;100.00;99906.34;4951725;29;20114;-78
2023/08/27 04:38:19;;;;;;;7.53;4.47;;;13.60;99.90;;;14.86;100.00;99911.06;4952761;29;20053;-78
2023/08/27 04:40:52;;;;;;;6.87;3.90;;;13.60;99.90;;;14.88;100.00;99932.78;4949073;28;20046;-78
2023/08/27 04:43:20;;;;;;;6.25;3.80;;;13.60;99.90;;;14.86;100.00;99929.50;4945960;29;20066;-78
2023/08/27 04:45:45;;;;;;;7.28;3.80;;;13.60;99.90;;;14.71;100.00;99911.78;4953326;28;20112;-78
2023/08/27 04:48:11;;;;;;;8.38;4.05;;;13.60;99.90;;;14.86;100.00;99930.28;4953050;28;20027;-79
2023/08/27 04:50:38;;;;;;;5.28;3.83;;;13.60;99.90;;;14.86;100.00;99926.75;4942323;29;20044;-78
2023/08/27 04:53:04;;;;;;;7.60;4.30;;;13.60;99.90;;;14.90;100.00;99922.38;4947319;29;20119;-78
2023/08/27 04:55:30;;;;;;;8.27;4.40;;;13.60;99.90;;;14.91;100.00;99924.84;4953142;29;20067;-77
2023/08/27 04:57:56;;;;;;;4.97;3.78;;;13.60;99.90;;;14.89;100.00;99926.22;4943575;29;20045;-78
2023/08/27 05:00:23;;;;;;;5.50;3.90;;;13.60;99.90;;;14.98;100.00;99943.84;4952070;28;20039;-78
2023/08/27 05:02:50;;;;;;;6.63;3.90;;;13.60;99.90;;;15.09;100.00;99933.75;4967075;28;20086;-79
2023/08/27 05:05:17;;;;;;;;;;;13.70;99.90;;;15.26;100.00;99928.09;4947445;28;20027;-80
2023/08/27 05:07:43;;;;;;;5.40;3.38;;;13.90;99.90;;;15.40;100.00;99933.94;4951570;28;19919;-80
2023/08/27 05:10:09;;;;;;;5.10;3.08;;;14.10;99.90;;;15.50;100.00;99960.66;4957536;28;20114;-77
2023/08/27 05:12:35;;;;;;;4.85;2.80;;;14.30;99.90;;;15.70;100.00;99981.09;4950248;29;20047;-79
2023/08/27 05:15:01;;;;;;;6.97;2.92;;;14.50;99.90;;;15.95;100.00;100005.16;4950241;28;20039;-83
2023/08/27 05:17:27;;;;;;;5.90;2.53;;;14.70;99.90;;;16.12;100.00;100024.22;4939139;29;20035;-81
2023/08/27 05:19:53;;;;;;;5.65;2.53;;;14.90;99.90;;;16.29;100.00;100042.44;4946158;29;20047;-82
2023/08/27 05:22:20;;;;;;;4.20;2.55;;;15.00;99.90;;;16.38;100.00;100047.16;4939397;28;20628;-82
2023/08/27 05:24:46;;;;;;;6.22;2.50;;;15.10;99.90;;;16.40;100.00;100044.13;4942984;29;20059;-77
2023/08/27 05:27:11;;;;;;;5.72;2.65;;;15.10;99.90;;;16.45;100.00;100038.66;4944054;28;20031;-77
2023/08/27 05:29:37;;;;;;;4.50;2.80;;;15.20;99.90;;;16.39;100.00;100025.94;4961459;28;20040;-78
2023/08/27 05:32:05;;;;;;;4.93;2.65;;;15.10;99.90;;;16.41;100.00;100029.25;4953436;29;20027;-77
2023/08/27 05:34:31;;;;;;;5.63;3.05;;;15.10;99.90;;;16.37;100.00;100020.75;4951015;29;20141;-77
2023/08/27 05:36:57;;;;;;;5.38;2.60;;;15.10;99.90;;;16.36;100.00;100021.00;4952220;28;20047;-77
2023/08/27 05:39:23;;;;;;;5.07;2.70;;;15.10;99.90;;;16.39;100.00;100021.28;4949244;28;20047;-77
2023/08/27 05:41:49;;;;;;;3.65;2.53;;;15.10;99.90;;;16.33;100.00;100002.28;4949158;28;20514;-77
2023/08/27 05:44:16;;;;;;;3.92;2.45;;;15.10;99.90;;;16.51;100.00;100010.03;4965121;28;20032;-77
2023/08/27 05:46:42;;;;;;;4.63;2.40;;;15.20;99.90;;;16.58;100.00;100018.03;4940514;29;20103;-77
2023/08/27 05:49:08;;;;;;;3.35;2.33;;;15.30;99.90;;;16.61;100.00;100024.91;4963606;28;20460;-78
2023/08/27 05:51:34;;;;;;;4.13;2.40;;;15.30;99.90;;;16.55;100.00;100026.81;4952033;29;20067;-79
2023/08/27 05:54:01;;;;;;;6.15;2.55;;;15.30;99.90;;;16.58;100.00;100031.81;4940262;29;20043;-81
2023/08/27 05:56:27;;;;;;;6.15;2.90;;;15.40;99.90;;;16.58;100.00;100018.03;4941378;29;20542;-81
2023/08/27 05:58:54;;;;;;;5.30;2.72;;;15.40;99.90;;;16.55;100.00;100004.78;4942228;28;20039;-82
2023/08/27 06:01:22;;;;;;;5.18;2.58;;;15.40;99.90;;;16.45;100.00;99988.25;4945716;28;20068;-81
2023/08/27 06:03:48;;;;;;;5.40;2.92;;;15.40;99.90;;;16.46;100.00;99990.75;4962327;28;20049;-82
2023/08/27 06:06:14;;;;;;;5.72;2.80;;;15.40;99.90;;;16.50;100.00;99997.38;4945654;28;20032;-82
2023/08/27 06:08:40;;;;;;;7.53;2.97;;;15.40;99.90;;;16.49;100.00;100008.63;4952312;29;20035;-81
2023/08/27 06:11:06;;;;;;;5.57;2.97;;;15.50;99.90;;;16.63;100.00;99997.91;4935270;28;20068;-80
2023/08/27 06:13:31;;;;;;;5.95;3.40;;;15.60;99.90;;;16.63;100.00;100009.78;4949803;29;20094;-80
2023/08/27 06:15:57;;;;;;;3.85;2.75;;;15.60;99.90;;;16.69;100.00;100018.84;4949956;29;20042;-79
2023/08/27 06:18:23;;;;;;;7.50;2.83;;;15.60;99.90;;;16.63;100.00;100026.31;4941751;29;20047;-80
2023/08/27 06:20:49;;;;;;;4.93;3.05;;;15.70;99.90;;;16.61;100.00;100017.50;4951644;28;20047;-80
2023/08/27 06:23:16;;;;;;;6.13;2.88;;;15.70;99.90;;;16.73;100.00;100027.41;4944864;28;20127;-79
2023/08/27 06:25:42;;;;;;;4.35;2.78;;;15.80;99.90;;;16.64;100.00;100027.13;4947171;28;20066;-81
2023/08/27 06:28:08;;;;;;;4.57;2.70;;;15.70;99.90;;;16.60;100.00;100028.75;4947657;28;20039;-79
2023/08/27 06:30:34;;;;;;;5.07;2.60;;;15.70;99.90;;;16.76;100.00;100024.09;4945633;28;20035;-79
2023/08/27 06:33:04;;;;;;;6.78;2.40;;;15.80;99.90;;;16.81;100.00;100038.72;4946777;29;20035;-78
2023/08/27 06:35:29;;;;;;;4.20;2.33;;;15.80;99.90;;;16.87;100.00;100035.97;4935724;29;20115;-80
2023/08/27 06:37:55;;;;;;;4.95;2.63;;;15.90;99.90;;;16.88;100.00;100026.59;4962487;28;20047;-79
2023/08/27 06:40:21;;;;;;;3.75;2.60;;;15.90;99.90;;;16.89;100.00;100029.09;4943147;29;20034;-77
2023/08/27 06:42:47;;;;;;;5.07;2.30;;;16.00;99.90;;;16.99;100.00;100030.22;4946471;28;20035;-81
2023/08/27 06:45:18;;;;;;;4.13;2.67;;;16.00;99.90;;;17.04;100.00;100025.53;4949310;28;20598;-80
2023/08/27 06:47:44;;;;;;;5.80;2.63;;;16.10;99.90;;;17.13;100.00;100030.50;4946434;29;20046;-82
2023/08/27 06:50:10;;;;;;;4.78;2.47;;;16.10;99.90;;;17.19;100.00;100037.66;4950072;28;20035;-80
2023/08/27 06:52:36;;;;;;;6.75;2.45;;;16.10;99.90;;;17.24;100.00;100030.22;4959313;28;20043;-79
2023/08/27 06:55:03;;;;;;;3.67;2.35;;;16.10;99.90;;;17.31;100.00;100032.69;4936437;29;20042;-80
2023/08/27 06:57:29;;;;;;;7.22;2.70;;;16.10;99.90;;;17.39;100.00;100034.88;4948419;29;20257;-83
2023/08/27 06:59:54;;;;;;;4.72;2.50;;;16.20;99.90;;;17.47;100.00;100036.25;4957549;28;20551;-80
2023/08/27 07:02:21;;;;;;;4.15;2.50;;;16.30;99.90;;;17.52;100.00;100040.94;4942089;29;20371;-80
2023/08/27 07:04:47;;;;;;;5.00;2.67;;;16.30;99.90;;;17.56;100.00;100039.28;4941682;28;20380;-81
2023/08/27 07:07:15;;;;;;;4.78;2.10;;;16.40;99.90;;;17.62;100.00;100040.91;4948980;28;20126;-78
2023/08/27 07:09:42;;;;;;;4.03;2.40;;;16.50;99.90;;;17.80;100.00;100035.91;4943235;28;20037;-77
2023/08/27 07:12:08;;;;;;;4.20;2.10;;;16.60;99.90;;;18.05;100.00;100048.00;4944065;28;20049;-77
2023/08/27 07:14:34;;;;;;;3.90;2.50;;;16.80;99.90;;;18.11;100.00;100042.16;4961108;29;20458;-78
2023/08/27 07:16:59;;;;;;;6.10;2.40;;;16.90;99.90;;;18.31;100.00;100047.91;4959107;29;20054;-78
2023/08/27 07:19:25;;;;;;;4.90;2.33;;;17.10;99.90;;;18.53;100.00;100053.84;4966181;28;20044;-79
2023/08/27 07:21:51;;;;;;;4.10;2.53;;;17.30;99.90;;;18.77;100.00;100074.44;4961662;28;20032;-77
2023/08/27 07:24:17;;;;;;;5.28;2.40;;;17.40;99.90;;;18.90;100.00;100062.72;4950009;28;20047;-78
2023/08/27 07:26:43;;;;;;;4.78;2.30;;;17.60;99.90;;;19.09;100.00;100060.13;4945856;29;20038;-78
2023/08/27 07:29:09;;;;;;;5.72;2.70;;;17.70;99.90;;;19.32;100.00;100060.50;4963863;28;20034;-78
2023/08/27 07:31:35;;;;;;;3.30;2.10;;;18.00;99.90;;;19.52;100.00;100066.97;4949004;28;20086;-79
2023/08/27 07:34:01;;;;;;;4.45;2.00;;;18.10;99.90;;;19.72;100.00;100079.75;4955257;28;20043;-80
2023/08/27 07:36:27;;;;;;;3.60;2.13;;;18.30;99.90;;;19.69;100.00;100078.41;4941651;28;20082;-77
2023/08/27 07:38:54;;;;;;;4.57;2.00;;;18.40;99.90;;;19.87;100.00;100098.16;4950651;28;20122;-76
2023/08/27 07:41:21;;;;;;;4.75;2.10;;;18.70;99.90;;;20.13;100.00;100095.13;4940656;29;20054;-77
2023/08/27 07:43:50;;;;;;;3.05;1.85;;;18.80;99.90;;;20.29;100.00;100092.19;4958801;28;20034;-77
2023/08/27 07:46:16;;;;;;;3.15;1.77;;;19.00;99.90;;;20.41;100.00;100100.88;4939718;29;20035;-78
2023/08/27 07:48:42;;;;;;;3.80;1.70;;;19.20;99.90;;;20.68;100.00;100094.72;4938359;28;20095;-80
2023/08/27 07:51:09;;;;;;;4.72;1.90;;;19.40;99.90;;;20.77;100.00;100092.09;4950399;28;20041;-80
2023/08/27 07:53:36;;;;;;;4.38;1.95;;;19.70;99.90;;;20.39;100.00;100089.28;4944142;29;20484;-79
2023/08/27 07:56:02;;;;;;;5.45;1.92;;;19.60;99.90;;;20.47;100.00;100101.66;4937380;29;20069;-79
2023/08/27 07:58:30;;;;;;;3.92;2.20;;;19.60;99.90;;;20.36;100.00;100096.25;4949113;29;20519;-78
2023/08/27 08:01:02;;;;;;;3.45;1.90;;;19.50;99.90;;;20.53;100.00;100094.91;4950791;29;20102;-79
2023/08/27 08:03:28;;;;;;;5.53;2.10;;;19.60;99.90;;;20.77;100.00;100094.88;4953602;28;20047;-81
2023/08/27 08:05:54;;;;;;;8.02;2.85;;;19.70;99.90;;;21.10;100.00;100092.19;4949549;28;20094;-78
2023/08/27 08:08:20;;;;;;;4.65;1.80;;;20.00;99.90;;;21.29;100.00;100087.72;4944416;28;20051;-78
2023/08/27 08:10:46;;;;;;;6.15;1.70;;;20.20;99.90;;;21.38;100.00;100097.03;4948889;28;20566;-77
2023/08/27 08:13:12;;;;;;;5.13;2.10;;;20.40;99.90;;;21.41;100.00;100093.66;4940258;28;20063;-79
2023/08/27 08:15:37;;;;;;;6.28;2.10;;;20.40;99.90;;;21.33;100.00;100084.06;4945702;29;20035;-78
2023/08/27 08:18:03;;;;;;;5.30;2.13;;;20.50;99.90;;;21.64;100.00;100085.47;4958583;28;20388;-78
2023/08/27 08:20:29;;;;;;;3.78;1.90;;;20.80;99.90;;;21.92;100.00;100083.59;4939300;29;20054;-78
2023/08/27 08:22:55;;;;;;;4.40;1.88;;;;;;;22.26;100.00;100090.66;4944755;28;20084;-78
2023/08/27 08:25:25;;;;;;;3.78;1.90;;;20.90;99.90;;;22.04;100.00;100083.06;4943472;28;20035;-79
2023/08/27 08:27:50;;;;;;;4.97;2.00;;;21.40;99.90;;;22.08;100.00;100063.84;4947752;29;20098;-78
2023/08/27 08:30:16;;;;;;;3.92;1.70;;;21.40;99.90;;;22.61;100.00;100087.47;4940877;29;20043;-78
2023/08/27 08:32:43;;;;;;;2.92;1.90;;;;;;;22.66;100.00;100050.41;4943976;28;20086;-76
2023/08/27 08:35:09;;;;;;;4.15;1.70;;;;;;;22.82;100.00;100075.91;4944412;28;20122;-77
2023/08/27 08:37:35;;;;;;;3.30;1.60;;;;;;;22.97;100.00;100094.19;4945054;29;20058;-77
2023/08/27 08:40:01;;;;;;;3.42;1.60;;;;;;;23.12;100.00;100093.00;4947330;28;20027;-77
2023/08/27 08:42:36;;;;;;;3.70;1.63;;;21.50;99.90;;;22.74;100.00;100093.34;4945259;28;20191;-78
2023/08/27 08:45:17;;;;;;;3.80;1.67;;;22.20;99.90;;;22.59;100.00;100094.50;4945754;29;20179;-79
2023/08/27 08:47:45;;;;;;;5.05;1.70;;;21.90;99.90;;;22.72;100.00;100090.84;4940903;29;20096;-78
2023/08/27 08:50:14;;;;;;;3.55;1.58;;;22.00;99.90;;;22.82;100.00;100082.31;4944337;28;20053;-79
2023/08/27 08:52:43;;;;;;;4.30;1.50;;;22.10;99.90;;;22.69;100.00;100099.81;4944326;29;20074;-76
2023/08/27 08:55:10;;;;;;;4.80;1.50;;;22.10;99.90;;;23.01;100.00;100111.88;4939335;28;20036;-79
2023/08/27 08:57:43;;;;;;;3.03;1.50;;;22.10;99.90;;;22.99;100.00;100109.44;4944280;28;20036;-77
2023/08/27 09:00:11;;;;;;;3.45;1.45;;;;;;;23.18;100.00;100107.59;4948487;29;20071;-79
2023/08/27 09:02:38;;;;;;;3.47;1.67;;;;;;;23.32;100.00;100102.00;4945529;29;20044;-78
2023/08/27 09:05:08;;;;;;;5.10;1.80;;;;;;;23.74;100.00;100099.00;4949095;29;20187;-80
2023/08/27 09:07:37;;;;;;;3.70;1.50;;;;;;;23.94;100.00;100101.22;4944618;29;20042;-78
2023/08/27 09:10:04;;;;;;;2.80;1.50;;;;;;;24.02;100.00;100090.47;4952138;29;20504;-80
2023/08/27 09:12:30;;;;;;;3.40;1.37;;;;;;;24.29;100.00;100095.00;4949255;28;20062;-80
2023/08/27 09:14:58;;;;;;;3.80;1.40;;;;;;;23.99;100.00;100094.69;4955571;28;20274;-79
2023/08/27 09:17:24;;;;;;;3.28;1.40;;;;;;;23.93;100.00;100112.69;4943903;28;20063;-79
2023/08/27 09:19:51;;;;;;;4.00;1.75;;;;;;;24.07;100.00;100101.47;4946607;28;20055;-78
2023/08/27 09:22:19;;;;;;;3.58;1.63;;;;;;;24.16;95.90;100093.13;4943011;29;20118;-79
2023/08/27 09:24:46;;;;;;;4.30;1.55;;;;;;;24.38;98.60;100097.78;4945293;29;20038;-77
2023/08/27 09:27:16;;;;;;;3.50;1.48;;;;;;;24.38;95.84;100100.56;4946704;29;20480;-79
2023/08/27 09:29:43;;;;;;;4.55;1.70;;;;;;;24.33;96.78;100103.53;4944574;29;20046;-79
2023/08/27 09:32:20;;;;;;;3.47;1.50;;;;;;;24.65;96.25;100110.66;4947827;29;20047;-79
2023/08/27 09:34:47;;;;;;;4.38;1.40;;;;;;;24.93;94.43;100103.97;4945244;28;20031;-78
2023/08/27 09:37:13;;;;;;;3.58;1.52;;;;;;;25.01;90.70;100088.38;4943694;29;20079;-79
2023/08/27 09:39:45;;;;;;;3.88;1.50;;;;;;;24.66;91.23;100078.00;4967386;28;20395;-79
2023/08/27 09:42:12;;;;;;;3.13;1.50;;;;;;;25.38;86.26;100077.69;4949648;29;20098;-81
2023/08/27 09:44:38;;;;;;;3.95;1.40;;;;;;;25.39;88.27;100077.34;4942861;29;20407;-83
2023/08/27 09:47:06;;;;;;;2.70;1.30;;;;;;;25.47;82.05;100070.13;4955062;28;20039;-79
2023/08/27 09:49:32;;;;;;;3.47;1.60;;;;;;;25.77;76.55;100078.59;4949041;29;20077;-79
2023/08/27 09:52:02;;;;;;;3.80;1.60;;;;;;;26.12;77.43;100078.44;4942101;29;20036;-82
2023/08/27 09:54:30;;;;;;;4.10;1.50;;;;;;;25.78;84.09;100076.63;4953735;29;20043;-84
2023/08/27 09:56:59;;;;;;;3.70;1.30;;;;;;;26.28;79.79;100061.97;4953336;29;20042;-80
2023/08/27 09:59:26;;;;;;;2.97;1.60;;;;;;;26.02;75.25;100064.84;4950806;28;20071;-80
2023/08/27 10:01:53;;;;;;;2.63;1.50;;;;;;;25.94;72.61;100057.34;4951921;29;20050;-77
2023/08/27 10:04:23;;;;;;;2.28;1.05;;;;;;;25.64;66.87;100044.13;4966041;28;20047;-79
2023/08/27 10:06:49;;;;;;;3.22;1.27;;;;;;;25.53;70.65;100060.44;4949104;29;20444;-80
2023/08/27 10:09:16;;;;;;;3.25;1.30;;;;;;;25.76;69.49;100064.97;4948744;28;20043;-79
2023/08/27 10:11:45;;;;;;;3.40;1.30;;;;;;;25.79;75.37;100072.69;4943997;28;20031;-79
2023/08/27 10:14:12;;;;;;;2.17;0.90;;;;;;;25.28;66.96;100040.59;4948596;29;20391;-80
2023/08/27 10:16:39;;;;;;;2.53;1.02;;;;;;;26.74;66.41;100049.31;4948890;28;20067;-79
2023/08/27 10:19:06;;;;;;;2.05;1.00;;;;;;;27.21;58.45;100034.25;4946541;29;20043;-80